Dades meteomassalio
Diari Summary for Nil La, TWC- Units:  English    Metric   Both
« Previous Day
Next Day »
Diari Semanal Mensual Anual Personalitzat
  Maxima: Minima: Mijana:
Temperatura: TemperatureC °F 8.9 °F 17.3 °F
Rosada: DewpointC °F 7.3 °F 10.9 °F
Humitat: Humidity % 38 % 69 %
Velocitat del vent: WindSpeedKMH mph 0.0 mph 2.2 mph
Racha vent: WindSpeedGustKMH mph - -
Vent:- - SW
Pressio: PressurehPa in 1014.1 in -
Pluja: 0.3 in    
Historical Graphs
 
 
Tabular Data for Nil La, TWC-
Time Temperature Dew Point Pressure Wind Wind Speed Wind Gust Humidity Rainfall Rate (Hourly) solar Conditions
TemperatureC °F DewpointC °F PressurehPa in Calm     Humidity % HourlyPrecipMM in SolarRadiationWatts/m^2 W/m2 Conditions
00:04 12.8 °F 9.9 °F 1015.1 in Calm     83 % 0.0 in 0.0 W/m2 RA
00:09 13.3 °F 10.7 °F 1015.1 in Calm     84 % 0.0 in 0.0 W/m2 CLR
00:14 13.3 °F 10.7 °F 1015.1 in Calm     84 % 0.0 in 0.0 W/m2 CLR
00:19 13.3 °F 10.9 °F 1015.1 in Calm     85 % 0.0 in 0.0 W/m2 CLR
00:24 13.3 °F 10.9 °F 1015.1 in Calm     85 % 0.0 in 0.0 W/m2 CLR
00:29 13.3 °F 10.9 °F 1015.1 in Calm     85 % 0.0 in 0.0 W/m2 CLR
00:34 13.3 °F 11.1 °F 1015.1 in Calm     86 % 0.0 in 0.0 W/m2 CLR
00:39 13.3 °F 11.1 °F 1015.1 in Calm     86 % 0.0 in 0.0 W/m2 CLR
00:44 12.8 °F 10.5 °F 1015.1 in Calm     86 % 0.0 in 0.0 W/m2 CLR
00:49 12.8 °F 10.5 °F 1014.8 in Calm     86 % 0.0 in 0.0 W/m2 CLR
00:54 12.8 °F 10.5 °F 1014.8 in Calm     86 % 0.0 in 0.0 W/m2 CLR
00:59 12.8 °F 10.5 °F 1014.8 in Calm     86 % 0.0 in 0.0 W/m2 CLR
01:04 12.2 °F 10.1 °F 1014.8 in Calm     87 % 0.0 in 0.0 W/m2 CLR
01:09 12.2 °F 10.1 °F 1014.8 in Calm     87 % 0.0 in 0.0 W/m2 CLR
01:14 12.2 °F 10.1 °F 1014.8 in Calm     87 % 0.0 in 0.0 W/m2 CLR
01:16 12.2 °F 10.1 °F 1014.8 in Calm     87 % 0.0 in 0.0 W/m2 CLR
01:21 12.2 °F 10.1 °F 1014.8 in Calm     87 % 0.0 in 0.0 W/m2 CLR
01:26 12.2 °F 10.3 °F 1014.8 in Calm     88 % 0.0 in 0.0 W/m2 CLR
01:31 12.2 °F 10.3 °F 1014.8 in Calm     88 % 0.0 in 0.0 W/m2 CLR
01:36 11.7 °F 9.7 °F 1014.8 in Calm     88 % 0.0 in 0.0 W/m2 CLR
01:41 11.7 °F 9.7 °F 1014.8 in Calm     88 % 0.0 in 0.0 W/m2 CLR
01:46 11.7 °F 9.7 °F 1014.4 in Calm     88 % 0.0 in 0.0 W/m2 CLR
01:51 11.7 °F 9.7 °F 1014.8 in Calm     88 % 0.0 in 0.0 W/m2 CLR
01:56 11.7 °F 9.7 °F 1014.4 in Calm     88 % 0.0 in 0.0 W/m2 CLR
02:01 11.7 °F 9.7 °F 1014.4 in Calm     88 % 0.0 in 0.0 W/m2 CLR
02:06 11.7 °F 9.9 °F 1014.4 in Calm     89 % 0.0 in 0.0 W/m2 CLR
02:11 11.7 °F 9.9 °F 1014.4 in Calm     89 % 0.0 in 0.0 W/m2 CLR
02:16 11.7 °F 9.9 °F 1014.4 in Calm     89 % 0.0 in 0.0 W/m2 CLR
02:17 11.7 °F 9.9 °F 1014.4 in Calm     89 % 0.0 in 0.0 W/m2 CLR
02:22 11.7 °F 9.9 °F 1014.1 in Calm     89 % 0.0 in 0.0 W/m2 CLR
02:27 11.7 °F 9.9 °F 1014.1 in Calm     89 % 0.0 in 0.0 W/m2 CLR
02:32 11.7 °F 9.9 °F 1014.1 in Calm     89 % 0.0 in 0.0 W/m2 CLR
02:37 12.2 °F 10.6 °F 1014.1 in Calm     90 % 0.0 in 0.0 W/m2 CLR
02:42 12.2 °F 10.6 °F 1014.1 in Calm     90 % 0.0 in 0.0 W/m2 CLR
02:47 11.7 °F 10.1 °F 1014.1 in Calm     90 % 0.0 in 0.0 W/m2 CLR
02:52 11.7 °F 10.1 °F 1014.1 in Calm     90 % 0.0 in 0.0 W/m2 CLR
02:55 11.7 °F 10.1 °F 1014.1 in Calm     90 % 0.0 in 0.0 W/m2 CLR
03:00 11.7 °F 10.1 °F 1014.1 in Calm     90 % 0.0 in 0.0 W/m2 CLR
03:05 11.7 °F 10.1 °F 1014.1 in Calm     90 % 0.0 in 0.0 W/m2 CLR
03:10 11.1 °F 9.6 °F 1014.1 in Calm     90 % 0.0 in 0.0 W/m2 CLR
03:15 11.1 °F 9.6 °F 1014.1 in Calm     90 % 0.0 in 0.0 W/m2 CLR
03:20 11.1 °F 9.6 °F 1014.1 in Calm     90 % 0.0 in 0.0 W/m2 CLR
03:25 11.1 °F 9.6 °F 1014.1 in Calm     90 % 0.0 in 0.0 W/m2 CLR
03:30 10.6 °F 9.0 °F 1014.1 in Calm     90 % 0.0 in 0.0 W/m2 CLR
03:35 10.6 °F 9.0 °F 1014.1 in Calm     90 % 0.0 in 0.0 W/m2 CLR
03:40 10.6 °F 9.0 °F 1014.1 in Calm     90 % 0.0 in 0.0 W/m2 CLR
03:45 10.6 °F 9.0 °F 1014.1 in Calm     90 % 0.0 in 0.0 W/m2 CLR
03:50 10.6 °F 9.0 °F 1014.1 in Calm     90 % 0.0 in 0.0 W/m2 CLR
03:55 10.6 °F 9.0 °F 1014.1 in Calm     90 % 0.0 in 0.0 W/m2 CLR
04:00 10.6 °F 9.0 °F 1014.1 in Calm     90 % 0.0 in 0.0 W/m2 CLR
04:05 10.0 °F 8.4 °F 1014.1 in Calm     90 % 0.0 in 0.0 W/m2 CLR
04:10 10.0 °F 8.4 °F 1014.1 in Calm     90 % 0.0 in 0.0 W/m2 CLR
04:15 10.0 °F 8.4 °F 1014.1 in Calm     90 % 0.0 in 0.0 W/m2 CLR
04:20 10.0 °F 8.4 °F 1014.1 in Calm     90 % 0.0 in 0.0 W/m2 CLR
04:25 10.0 °F 8.6 °F 1014.1 in Calm     91 % 0.0 in 0.0 W/m2 CLR
04:30 10.0 °F 8.6 °F 1014.1 in Calm     91 % 0.0 in 0.0 W/m2 CLR
04:35 10.0 °F 8.6 °F 1014.1 in Calm     91 % 0.0 in 0.0 W/m2 CLR
04:40 9.4 °F 8.1 °F 1014.1 in Calm     91 % 0.0 in 0.0 W/m2 CLR
04:45 9.4 °F 8.1 °F 1014.1 in Calm     91 % 0.0 in 0.0 W/m2 CLR
04:50 9.4 °F 8.1 °F 1014.1 in Calm     91 % 0.0 in 0.0 W/m2 CLR
04:55 9.4 °F 8.1 °F 1014.1 in Calm     91 % 0.0 in 0.0 W/m2 CLR
05:00 9.4 °F 8.1 °F 1014.1 in Calm     91 % 0.0 in 0.0 W/m2 CLR
05:05 9.4 °F 8.1 °F 1014.1 in Calm     91 % 0.0 in 0.0 W/m2 CLR
05:10 9.4 °F 8.1 °F 1014.1 in Calm     91 % 0.0 in 0.0 W/m2 CLR
05:15 9.4 °F 8.1 °F 1014.1 in Calm     91 % 0.0 in 0.0 W/m2 CLR
05:20 9.4 °F 8.1 °F 1014.1 in Calm     91 % 0.0 in 0.0 W/m2 CLR
05:25 9.4 °F 8.1 °F 1014.4 in Calm     91 % 0.0 in 0.0 W/m2 CLR
05:30 10.0 °F 8.6 °F 1014.4 in Calm     91 % 0.0 in 0.0 W/m2 CLR
05:35 9.4 °F 8.1 °F 1014.4 in Calm     91 % 0.0 in 0.0 W/m2 CLR
05:41 9.4 °F 8.1 °F 1014.4 in Calm     91 % 0.0 in 0.0 W/m2 CLR
05:46 9.4 °F 8.1 °F 1014.4 in Calm     91 % 0.0 in 0.0 W/m2 CLR
05:51 9.4 °F 8.2 °F 1014.4 in Calm     92 % 0.0 in 0.0 W/m2 CLR
05:56 9.4 °F 8.2 °F 1014.8 in Calm     92 % 0.0 in 0.0 W/m2 CLR
06:01 9.4 °F 8.2 °F 1014.4 in Calm     92 % 0.0 in 0.0 W/m2 CLR
06:06 9.4 °F 8.1 °F 1014.8 in Calm     91 % 0.0 in 0.0 W/m2 CLR
06:11 9.4 °F 8.1 °F 1014.8 in Calm     91 % 0.0 in 0.0 W/m2 CLR
06:16 9.4 °F 8.2 °F 1014.8 in Calm     92 % 0.0 in 0.0 W/m2 CLR
06:21 9.4 °F 8.2 °F 1014.8 in Calm     92 % 0.0 in 0.0 W/m2 CLR
06:26 9.4 °F 8.2 °F 1015.1 in Calm     92 % 0.0 in 0.0 W/m2 OVC
06:31 9.4 °F 8.2 °F 1015.1 in Calm     92 % 0.0 in 0.0 W/m2 OVC
06:36 9.4 °F 8.2 °F 1015.1 in Calm     92 % 0.0 in 0.0 W/m2 OVC
06:41 9.4 °F 8.2 °F 1015.1 in Calm     92 % 0.0 in 5.0 W/m2 OVC
06:46 9.4 °F 8.2 °F 1015.5 in Calm     92 % 0.0 in 9.0 W/m2 BKN
06:51 9.4 °F 8.2 °F 1015.1 in Calm     92 % 0.3 in 12.0 W/m2 RA
06:56 9.4 °F 8.2 °F 1015.1 in Calm     92 % 0.3 in 18.0 W/m2 BKN
07:01 8.9 °F 7.7 °F 1015.5 in Calm     92 % 0.3 in 23.0 W/m2 BKN
07:06 8.9 °F 7.7 °F 1015.5 in Calm     92 % 0.3 in 30.0 W/m2 BKN
07:11 9.4 °F 8.2 °F 1015.5 in Calm     92 % 0.3 in 39.0 W/m2 BKN
07:16 9.4 °F 8.2 °F 1015.5 in Calm     92 % 0.3 in 42.0 W/m2 BKN
07:21 10.0 °F 8.8 °F 1015.8 in Calm     92 % 0.3 in 47.0 W/m2 SCT
07:26 10.0 °F 8.8 °F 1015.8 in Calm     92 % 0.3 in 65.0 W/m2 SCT
07:31 10.6 °F 9.3 °F 1015.8 in Calm     92 % 0.3 in 74.0 W/m2 FEW
07:36 10.6 °F 9.3 °F 1015.8 in Calm     92 % 0.3 in 84.0 W/m2 FEW
07:41 11.1 °F 9.8 °F 1015.8 in Calm     92 % 0.3 in 95.0 W/m2 FEW
07:46 11.7 °F 10.4 °F 1015.8 in Calm     92 % 0.3 in 109.0 W/m2 CLR
07:51 11.7 °F 10.4 °F 1015.8 in Calm     92 % 0.0 in 121.0 W/m2 CLR
07:56 12.2 °F 10.9 °F 1015.8 in Calm     92 % 0.0 in 58.0 W/m2 CLR
08:01 12.2 °F 10.9 °F 1015.8 in Calm     92 % 0.0 in 167.0 W/m2 FEW
08:06 12.8 °F 11.5 °F 1015.8 in Calm     92 % 0.0 in 192.0 W/m2 CLR
08:11 13.3 °F 12.1 °F 1015.8 in Calm     92 % 0.0 in 211.0 W/m2 CLR
08:16 13.3 °F 11.9 °F 1015.8 in Calm     91 % 0.0 in 223.0 W/m2 CLR
08:21 13.3 °F 11.9 °F 1015.8 in Calm     91 % 0.0 in 211.0 W/m2 CLR
08:26 13.9 °F 12.4 °F 1015.8 in Calm     91 % 0.0 in 237.0 W/m2 CLR
08:31 14.4 °F 13.0 °F 1015.8 in Calm     91 % 0.0 in 257.0 W/m2 CLR
08:36 15.0 °F 13.4 °F 1016.1 in Calm     90 % 0.0 in 278.0 W/m2 CLR
08:41 15.6 °F 13.6 °F 1016.1 in Calm     88 % 0.0 in 294.0 W/m2 CLR
08:46 16.1 °F 13.8 °F 1015.8 in Calm     86 % 0.0 in 369.0 W/m2 CLR
08:51 16.1 °F 13.6 °F 1016.1 in Calm     85 % 0.0 in 316.0 W/m2 CLR
08:56 16.7 °F 13.9 °F 1016.1 in Calm     84 % 0.0 in 155.0 W/m2 CLR
09:01 16.1 °F 13.2 °F 1016.1 in Calm     83 % 0.0 in 427.0 W/m2 CLR
09:06 16.7 °F 13.6 °F 1016.1 in Calm     82 % 0.0 in 388.0 W/m2 CLR
09:11 16.7 °F 13.2 °F 1016.1 in Calm     80 % 0.0 in 448.0 W/m2 CLR
09:16 16.7 °F 13.2 °F 1015.8 in Calm     80 % 0.0 in 292.0 W/m2 CLR
09:21 16.7 °F 13.0 °F 1015.8 in Calm     79 % 0.0 in 494.0 W/m2 CLR
09:26 16.7 °F 13.0 °F 1015.8 in Calm     79 % 0.0 in 489.0 W/m2 CLR
09:31 17.2 °F 13.3 °F 1015.8 in Calm     78 % 0.0 in 483.0 W/m2 CLR
09:36 17.8 °F 13.7 °F 1015.8 in Calm     77 % 0.0 in 492.0 W/m2 CLR
09:41 18.3 °F 13.8 °F 1015.8 in Calm     75 % 0.0 in 466.0 W/m2 CLR
09:46 18.3 °F 13.6 °F 1015.8 in Calm     74 % 0.0 in 526.0 W/m2 CLR
09:51 18.9 °F 13.9 °F 1016.1 in NNW 11.1 mph 11.1 mph 73 % 0.0 in 543.0 W/m2 CLR
09:56 18.3 °F 13.4 °F 1016.1 in NNW 11.1 mph 11.1 mph 73 % 0.0 in 563.0 W/m2 CLR
10:01 18.9 °F 13.9 °F 1016.1 in North 5.6 mph 5.6 mph 73 % 0.0 in 606.0 W/m2 CLR
10:06 19.4 °F 14.3 °F 1015.8 in North 3.7 mph 3.7 mph 72 % 0.0 in 680.0 W/m2 CLR
10:11 20.0 °F 14.3 °F 1015.8 in NNW 7.4 mph 7.4 mph 70 % 0.0 in 763.0 W/m2 CLR
10:16 20.0 °F 14.3 °F 1015.8 in Calm   1.1 mph 70 % 0.0 in 309.0 W/m2 CLR
10:21 19.4 °F 13.4 °F 1015.8 in NW 9.3 mph 9.3 mph 68 % 0.0 in 309.0 W/m2 CLR
10:26 19.4 °F 14.1 °F 1015.8 in NW 3.7 mph   71 % 0.0 in 329.0 W/m2 CLR
10:31 19.4 °F 14.3 °F 1015.8 in NW 6.4 mph 6.4 mph 72 % 0.0 in 420.0 W/m2 CLR
10:36 19.4 °F 14.1 °F 1015.8 in Calm     71 % 0.0 in 441.0 W/m2 CLR
10:41 19.4 °F 14.1 °F 1015.8 in NW 13.0 mph 13.0 mph 71 % 0.0 in 346.0 W/m2 CLR
10:46 19.4 °F 14.1 °F 1015.8 in Calm     71 % 0.0 in 299.0 W/m2 CLR
10:51 19.4 °F 13.8 °F 1015.8 in NNW 11.1 mph 11.1 mph 70 % 0.0 in 301.0 W/m2 CLR
10:56 19.4 °F 13.6 °F 1015.8 in Calm     69 % 0.0 in 323.0 W/m2 CLR
11:01 19.4 °F 13.8 °F 1015.8 in Calm     70 % 0.0 in 431.0 W/m2 CLR
11:06 19.4 °F 13.6 °F 1015.8 in North 7.4 mph 7.4 mph 69 % 0.0 in 478.0 W/m2 CLR
11:11 20.0 °F 13.7 °F 1015.8 in Calm     67 % 0.0 in 686.0 W/m2 CLR
11:16 20.0 °F 14.3 °F 1015.8 in North 13.0 mph 13.0 mph 70 % 0.0 in 345.0 W/m2 CLR
11:21 20.0 °F 14.3 °F 1015.8 in Calm     70 % 0.0 in 306.0 W/m2 CLR
11:26 20.6 °F 14.7 °F 1015.8 in North 14.8 mph 14.8 mph 69 % 0.0 in 993.0 W/m2 CLR
11:28 20.6 °F 14.4 °F 1015.8 in NNE 12.9 mph 12.9 mph 68 % 0.0 in 993.0 W/m2 CLR
11:33 21.1 °F 15.2 °F 1016.1 in North 11.1 mph 11.1 mph 69 % 0.0 in 552.0 W/m2 CLR
11:38 20.6 °F 14.0 °F 1016.1 in NNE 14.8 mph 14.8 mph 66 % 0.0 in 786.0 W/m2 CLR
11:43 20.6 °F 14.2 °F 1016.1 in North 13.0 mph 13.0 mph 67 % 0.0 in 993.0 W/m2 CLR
11:48 21.1 °F 14.3 °F 1016.1 in Calm     65 % 0.0 in 951.0 W/m2 CLR
11:53 21.1 °F 14.1 °F 1016.1 in Calm     64 % 0.0 in 837.0 W/m2 CLR
11:58 21.1 °F 13.6 °F 1016.1 in Calm     62 % 0.0 in 670.0 W/m2 CLR
11:59 21.1 °F 14.1 °F 1016.1 in Calm     64 % 0.0 in 670.0 W/m2 CLR
12:04 21.1 °F 13.8 °F 1016.1 in Calm     63 % 0.0 in 475.0 W/m2 CLR
12:09 21.7 °F 14.1 °F 1016.1 in WNW 8.0 mph 8.0 mph 62 % 0.0 in 780.0 W/m2 CLR
12:14 21.7 °F 13.8 °F 1016.1 in Calm     61 % 0.0 in 471.0 W/m2 CLR
12:19 21.7 °F 13.8 °F 1016.1 in Calm     61 % 0.0 in 455.0 W/m2 CLR
12:24 21.1 °F 13.8 °F 1016.1 in Calm     63 % 0.0 in 478.0 W/m2 CLR
12:29 21.1 °F 13.8 °F 1016.1 in Calm     63 % 0.0 in 547.0 W/m2 CLR
12:34 21.7 °F 14.3 °F 1016.1 in Calm     63 % 0.0 in 531.0 W/m2 CLR
12:39 21.1 °F 13.8 °F 1016.1 in NW 3.7 mph 3.7 mph 63 % 0.0 in 599.0 W/m2 CLR
12:44 21.1 °F 13.8 °F 1015.8 in NW 3.7 mph 3.7 mph 63 % 0.0 in 469.0 W/m2 CLR
12:49 20.6 °F 13.3 °F 1015.8 in Calm     63 % 0.0 in 617.0 W/m2 CLR
12:54 21.1 °F 13.6 °F 1015.8 in Calm     62 % 0.0 in 705.0 W/m2 CLR
12:59 21.1 °F 13.3 °F 1015.8 in Calm     61 % 0.0 in 543.0 W/m2 CLR
13:04 21.7 °F 13.8 °F 1015.8 in Calm     61 % 0.0 in 524.0 W/m2 CLR
13:09 21.7 °F 14.1 °F 1015.8 in Calm     62 % 0.0 in 1211.0 W/m2 CLR
13:14 21.7 °F 13.3 °F 1015.8 in Calm     59 % 0.0 in 455.0 W/m2 CLR
13:19 21.1 °F 12.8 °F 1015.8 in NNW 6.4 mph 6.4 mph 59 % 0.0 in 399.0 W/m2 CLR
13:24 21.7 °F 13.6 °F 1015.8 in Calm     60 % 0.0 in 399.0 W/m2 CLR
13:29 21.1 °F 12.8 °F 1015.8 in Calm     59 % 0.0 in 399.0 W/m2 CLR
13:34 21.1 °F 12.8 °F 1015.8 in WNW 1.9 mph 1.9 mph 59 % 0.0 in 457.0 W/m2 CLR
13:39 21.7 °F 13.6 °F 1015.8 in Calm     60 % 0.0 in 469.0 W/m2 CLR
13:44 22.2 °F 13.3 °F 1015.8 in West 9.3 mph 9.3 mph 57 % 0.0 in 434.0 W/m2 CLR
13:49 22.2 °F 13.6 °F 1015.8 in Calm     58 % 0.0 in 392.0 W/m2 CLR
13:54 21.7 °F 12.8 °F 1015.8 in Calm     57 % 0.0 in 336.0 W/m2 CLR
13:59 22.2 °F 14.1 °F 1015.8 in Calm     60 % 0.0 in 1109.0 W/m2 CLR
14:04 22.8 °F 14.1 °F 1015.8 in SE 9.3 mph 9.3 mph 58 % 0.0 in 979.0 W/m2 CLR
14:09 23.9 °F 14.8 °F 1015.8 in SSW 5.6 mph 5.6 mph 57 % 0.0 in 990.0 W/m2 CLR
14:14 23.9 °F 14.8 °F 1015.5 in SSW 5.6 mph 5.6 mph 57 % 0.0 in 1007.0 W/m2 CLR
14:19 23.3 °F 14.1 °F 1015.5 in SSE 5.6 mph 5.6 mph 56 % 0.0 in 965.0 W/m2 CLR
14:24 23.3 °F 14.1 °F 1015.5 in SSW 9.3 mph 9.3 mph 56 % 0.0 in 972.0 W/m2 CLR
14:29 23.3 °F 14.3 °F 1015.5 in SW 5.6 mph 5.6 mph 57 % 0.0 in 969.0 W/m2 CLR
14:34 23.9 °F 14.6 °F 1015.5 in Calm     56 % 0.0 in 1000.0 W/m2 CLR
14:39 23.9 °F 14.0 °F 1015.5 in Calm     54 % 0.0 in 1034.0 W/m2 CLR
14:44 24.4 °F 14.2 °F 1015.1 in Calm     53 % 0.0 in 272.0 W/m2 CLR
14:49 23.9 °F 13.4 °F 1015.5 in NNE 11.1 mph 11.1 mph 52 % 0.0 in 192.0 W/m2 CLR
14:54 22.8 °F 12.7 °F 1015.5 in Calm     53 % 0.0 in 199.0 W/m2 CLR
14:59 23.3 °F 12.6 °F 1015.5 in NE 7.4 mph 7.4 mph 51 % 0.0 in 997.0 W/m2 CLR
15:04 23.3 °F 12.9 °F 1015.1 in Calm     52 % 0.0 in 997.0 W/m2 CLR
15:09 23.9 °F 11.9 °F 1015.1 in Calm     47 % 0.0 in 940.0 W/m2 CLR
15:14 24.4 °F 13.1 °F 1015.1 in Calm     49 % 0.0 in 942.0 W/m2 CLR
15:19 25.0 °F 12.6 °F 1015.1 in Calm     46 % 0.0 in 944.0 W/m2 CLR
15:24 24.4 °F 12.1 °F 1015.1 in Calm     46 % 0.0 in 930.0 W/m2 CLR
15:29 24.4 °F 11.7 °F 1015.1 in North 11.3 mph 11.3 mph 45 % 0.0 in 919.0 W/m2 CLR
15:34 25.0 °F 11.9 °F 1015.1 in North 11.1 mph 11.1 mph 44 % 0.0 in 904.0 W/m2 CLR
15:39 25.0 °F 11.6 °F 1015.1 in NW 7.4 mph   43 % 0.0 in 893.0 W/m2 CLR
15:44 25.0 °F 11.6 °F 1015.1 in Calm     43 % 0.0 in 895.0 W/m2 CLR
15:49 25.6 °F 11.3 °F 1015.1 in SW 1.9 mph 1.9 mph 41 % 0.0 in 911.0 W/m2 CLR
15:54 25.6 °F 11.3 °F 1014.8 in Calm     41 % 0.0 in 116.0 W/m2 CLR
15:59 24.4 °F 10.7 °F 1014.8 in Calm     42 % 0.0 in 125.0 W/m2 CLR
16:04 23.9 °F 10.6 °F 1014.8 in Calm     43 % 0.0 in 875.0 W/m2 CLR
16:09 24.4 °F 11.1 °F 1014.8 in NW 5.6 mph 5.6 mph 43 % 0.0 in 884.0 W/m2 CLR
16:14 24.4 °F 10.7 °F 1014.8 in Calm     42 % 0.0 in 865.0 W/m2 CLR
16:19 23.9 °F 9.8 °F 1014.8 in Calm     41 % 0.0 in 160.0 W/m2 CLR
16:24 23.3 °F 9.3 °F 1014.8 in Calm     41 % 0.0 in 875.0 W/m2 CLR
16:29 23.9 °F 9.8 °F 1014.8 in Calm     41 % 0.0 in 281.0 W/m2 CLR
16:34 23.9 °F 9.4 °F 1014.4 in East 1.6 mph 1.6 mph 40 % 0.0 in 830.0 W/m2 CLR
16:39 24.4 °F 10.3 °F 1014.4 in Calm     41 % 0.0 in 828.0 W/m2 CLR
16:44 25.0 °F 10.4 °F 1014.4 in Calm     40 % 0.0 in 840.0 W/m2 CLR
16:49 25.6 °F 10.6 °F 1014.4 in South 5.6 mph   39 % 0.0 in 809.0 W/m2 CLR
16:54 25.6 °F 11.3 °F 1014.4 in East 7.4 mph 7.4 mph 41 % 0.0 in 782.0 W/m2 CLR
16:59 25.0 °F 9.7 °F 1014.4 in East 7.4 mph 7.4 mph 38 % 0.0 in 798.0 W/m2 CLR
17:04 25.0 °F 10.1 °F 1014.4 in Calm     39 % 0.0 in 800.0 W/m2 CLR
17:09 25.0 °F 9.7 °F 1014.4 in West 8.0 mph 8.0 mph 38 % 0.0 in 772.0 W/m2 CLR
17:14 25.0 °F 11.9 °F 1014.4 in SW 22.2 mph 22.2 mph 44 % 0.0 in 148.0 W/m2 CLR
17:19 23.9 °F 11.2 °F 1014.4 in SW 16.7 mph 16.7 mph 45 % 0.0 in 165.0 W/m2 CLR
17:24 24.4 °F 12.4 °F 1014.4 in WSW 24.1 mph 24.1 mph 47 % 0.0 in 715.0 W/m2 CLR
17:29 23.9 °F 12.2 °F 1014.4 in SW 18.5 mph 18.5 mph 48 % 0.0 in 151.0 W/m2 CLR
17:34 23.3 °F 12.0 °F 1014.4 in SSW 17.7 mph 17.7 mph 49 % 0.0 in 125.0 W/m2 CLR
17:39 23.3 °F 12.3 °F 1014.4 in SSW 19.3 mph 19.3 mph 50 % 0.0 in 146.0 W/m2 CLR
17:44 23.3 °F 11.4 °F 1014.4 in South 14.5 mph 14.5 mph 47 % 0.0 in 123.0 W/m2 CLR
17:49 23.3 °F 11.7 °F 1014.4 in SSW 4.8 mph 4.8 mph 48 % 0.0 in 169.0 W/m2 CLR
17:54 23.3 °F 11.4 °F 1014.4 in SW 11.3 mph 11.3 mph 47 % 0.0 in 605.0 W/m2 CLR
17:59 23.9 °F 11.2 °F 1014.4 in WSW 9.3 mph 9.3 mph 45 % 0.0 in 577.0 W/m2 CLR
18:05 23.9 °F 11.2 °F 1014.4 in WSW 13.0 mph 13.0 mph 45 % 0.0 in 209.0 W/m2 CLR
18:10 24.4 °F 11.7 °F 1014.4 in WNW 7.4 mph 7.4 mph 45 % 0.0 in 209.0 W/m2 CLR
18:15 24.4 °F 11.4 °F 1014.4 in WSW 8.0 mph 8.0 mph 44 % 0.0 in 102.0 W/m2 CLR
18:20 23.9 °F 10.6 °F 1014.4 in WSW 1.6 mph 1.6 mph 43 % 0.0 in 127.0 W/m2 CLR
18:25 23.9 °F 10.9 °F 1014.4 in West 7.4 mph 7.4 mph 44 % 0.0 in 128.0 W/m2 CLR
18:30 23.9 °F 10.9 °F 1014.8 in WSW 3.7 mph 3.7 mph 44 % 0.0 in 97.0 W/m2 CLR
18:35 23.3 °F 10.4 °F 1014.8 in WSW 7.4 mph 7.4 mph 44 % 0.0 in 104.0 W/m2 CLR
18:40 23.3 °F 10.4 °F 1014.8 in West 3.2 mph 3.2 mph 44 % 0.0 in 111.0 W/m2 CLR
18:45 23.3 °F 11.4 °F 1014.8 in SW 11.3 mph 11.3 mph 47 % 0.0 in 155.0 W/m2 CLR
18:50 23.3 °F 11.7 °F 1014.8 in SW 7.4 mph 9.0 mph 48 % 0.0 in 107.0 W/m2 CLR
18:55 23.3 °F 11.7 °F 1014.8 in SW 11.1 mph 11.1 mph 48 % 0.0 in 241.0 W/m2 CLR
19:00 23.3 °F 11.7 °F 1014.8 in Calm     48 % 0.0 in 420.0 W/m2 CLR
19:05 23.3 °F 11.4 °F 1014.8 in Calm     47 % 0.0 in 385.0 W/m2 CLR
19:10 23.9 °F 10.9 °F 1014.8 in Calm     44 % 0.0 in 385.0 W/m2 CLR
19:15 24.4 °F 11.4 °F 1014.8 in Calm     44 % 0.0 in 390.0 W/m2 CLR
19:20 25.0 °F 11.6 °F 1014.8 in Calm     43 % 0.0 in 380.0 W/m2 CLR
19:25 25.6 °F 12.7 °F 1014.8 in SSW 11.1 mph 11.1 mph 45 % 0.0 in 322.0 W/m2 CLR
19:30 25.6 °F 12.7 °F 1014.8 in SW 11.1 mph 11.1 mph 45 % 0.0 in 287.0 W/m2 CLR
19:35 25.6 °F 12.4 °F 1014.8 in SSW 9.7 mph 9.7 mph 44 % 0.0 in 262.0 W/m2 CLR
19:40 25.6 °F 12.4 °F 1014.8 in Calm     44 % 0.0 in 243.0 W/m2 CLR
19:45 25.6 °F 12.4 °F 1014.8 in Calm     44 % 0.0 in 218.0 W/m2 CLR
19:50 26.1 °F 12.9 °F 1014.8 in Calm     44 % 0.0 in 197.0 W/m2 CLR
19:55 25.6 °F 12.7 °F 1014.8 in Calm     45 % 0.0 in 174.0 W/m2 CLR
20:00 25.6 °F 12.4 °F 1014.8 in Calm     44 % 0.0 in 156.0 W/m2 CLR
20:05 25.0 °F 12.2 °F 1014.8 in WSW 6.4 mph 6.4 mph 45 % 0.0 in 134.0 W/m2 CLR
20:10 25.0 °F 12.6 °F 1014.8 in Calm     46 % 0.0 in 114.0 W/m2 CLR
20:15 24.4 °F 11.7 °F 1014.8 in Calm     45 % 0.0 in 98.0 W/m2 CLR
20:20 23.9 °F 11.6 °F 1015.1 in Calm     46 % 0.0 in 84.0 W/m2 FEW
20:25 23.3 °F 11.1 °F 1015.1 in Calm     46 % 0.0 in 32.0 W/m2 BKN
20:30 22.8 °F 10.6 °F 1015.1 in Calm     46 % 0.0 in 58.0 W/m2 SCT
20:35 21.7 °F 9.8 °F 1015.1 in Calm     47 % 0.0 in 44.0 W/m2 BKN
20:40 21.1 °F 9.3 °F 1015.1 in Calm     47 % 0.0 in 37.0 W/m2 BKN
20:45 20.6 °F 8.8 °F 1015.1 in Calm     47 % 0.0 in 28.0 W/m2 BKN
20:50 20.0 °F 10.1 °F 1015.1 in Calm     53 % 0.0 in 21.0 W/m2 BKN
20:55 19.4 °F 9.1 °F 1015.1 in Calm     51 % 0.0 in 18.0 W/m2 BKN
21:00 18.9 °F 8.2 °F 1015.1 in Calm     50 % 0.0 in 14.0 W/m2 BKN
21:05 18.9 °F 8.2 °F 1015.1 in West 5.6 mph 5.6 mph 50 % 0.0 in 11.0 W/m2 BKN
21:10 18.3 °F 8.0 °F 1015.1 in Calm     51 % 0.0 in 9.0 W/m2 BKN
21:15 17.8 °F 7.8 °F 1015.1 in Calm     52 % 0.0 in 5.0 W/m2 OVC
21:20 17.8 °F 7.8 °F 1015.5 in Calm     52 % 0.0 in 0.0 W/m2 OVC
21:25 17.8 °F 8.9 °F 1015.5 in Calm     56 % 0.0 in 0.0 W/m2 OVC
21:30 17.8 °F 8.3 °F 1015.5 in WNW 7.4 mph 7.4 mph 54 % 0.0 in 0.0 W/m2 CLR
21:35 17.2 °F 7.8 °F 1015.5 in WNW 5.6 mph 5.6 mph 54 % 0.0 in 0.0 W/m2 CLR
21:40 17.2 °F 7.8 °F 1015.5 in West 6.4 mph 6.4 mph 54 % 0.0 in 0.0 W/m2 CLR
21:45 16.7 °F 7.3 °F 1015.5 in WNW 9.3 mph 9.3 mph 54 % 0.0 in 0.0 W/m2 CLR
21:50 16.7 °F 7.6 °F 1015.8 in WNW 3.7 mph 3.7 mph 55 % 0.0 in 0.0 W/m2 CLR
21:55 16.1 °F 7.8 °F 1015.8 in Calm     58 % 0.0 in 0.0 W/m2 CLR
22:00 16.1 °F 8.6 °F 1015.8 in Calm     61 % 0.0 in 0.0 W/m2 CLR
22:05 15.6 °F 8.1 °F 1015.8 in Calm     61 % 0.0 in 0.0 W/m2 CLR
22:10 15.6 °F 8.3 °F 1016.1 in Calm     62 % 0.0 in 0.0 W/m2 CLR
22:15 15.0 °F 7.6 °F 1016.1 in Calm     61 % 0.0 in 0.0 W/m2 CLR
22:20 15.0 °F 8.2 °F 1016.1 in Calm     64 % 0.0 in 0.0 W/m2 CLR
22:25 15.0 °F 8.2 °F 1016.5 in Calm     64 % 0.0 in 0.0 W/m2 CLR
22:26 15.0 °F 8.4 °F 1016.5 in Calm     65 % 0.0 in 0.0 W/m2 CLR
22:31 15.0 °F 8.2 °F 1016.5 in Calm     64 % 0.0 in 0.0 W/m2 CLR
22:36 14.4 °F 7.9 °F 1016.5 in Calm     65 % 0.0 in 0.0 W/m2 CLR
22:41 14.4 °F 8.2 °F 1016.8 in Calm     66 % 0.0 in 0.0 W/m2 CLR
22:46 14.4 °F 8.2 °F 1016.8 in Calm     66 % 0.0 in 0.0 W/m2 CLR
22:51 14.4 °F 8.4 °F 1016.8 in Calm     67 % 0.0 in 0.0 W/m2 CLR
22:56 14.4 °F 8.4 °F 1017.2 in Calm     67 % 0.0 in 0.0 W/m2 CLR
23:01 13.9 °F 7.6 °F 1017.2 in Calm     66 % 0.0 in 0.0 W/m2 CLR
23:06 13.9 °F 7.8 °F 1017.2 in Calm     67 % 0.0 in 0.0 W/m2 CLR
23:11 13.9 °F 8.1 °F 1017.2 in Calm     68 % 0.0 in 0.0 W/m2 CLR
23:16 13.9 °F 8.1 °F 1017.5 in Calm     68 % 0.0 in 0.0 W/m2 CLR
23:21 13.9 °F 8.3 °F 1017.5 in Calm     69 % 0.0 in 0.0 W/m2 CLR
23:26 13.9 °F 8.7 °F 1017.5 in Calm     71 % 0.0 in 0.0 W/m2 CLR
23:31 13.9 °F 8.9 °F 1017.5 in Calm     72 % 0.0 in 0.0 W/m2 CLR
23:36 13.9 °F 8.9 °F 1017.5 in Calm     72 % 0.0 in 0.0 W/m2 CLR
23:41 13.9 °F 8.7 °F 1017.5 in Calm     71 % 0.0 in 0.0 W/m2 CLR
23:42 13.9 °F 8.7 °F 1017.5 in Calm     71 % 0.0 in 0.0 W/m2 CLR
Lo Temps de Massalio
Compliments of Weather Underground - 1.25 mb